createdAt,value
2023-05-14T00:01:04.751Z,47.51
2023-05-14T00:03:34.157Z,47.57
2023-05-14T00:06:02.091Z,47.53
2023-05-14T00:08:32.841Z,47.47
2023-05-14T00:11:05.535Z,47.41
2023-05-14T00:13:33.513Z,47.41
2023-05-14T00:16:01.572Z,47.24
2023-05-14T00:18:29.618Z,47.33
2023-05-14T00:20:59.004Z,47.35
2023-05-14T00:23:27.058Z,47.26
2023-05-14T00:25:55.002Z,47.34
2023-05-14T00:28:23.141Z,47.47
2023-05-14T00:30:51.088Z,47.53
2023-05-14T00:33:19.086Z,47.24
2023-05-14T00:35:47.070Z,47.48
2023-05-14T00:38:17.668Z,47.37
2023-05-14T00:40:51.107Z,47.29
2023-05-14T00:43:19.709Z,47.55
2023-05-14T00:45:52.766Z,47.32
2023-05-14T00:48:21.521Z,47.38
2023-05-14T00:50:50.994Z,47.35
2023-05-14T00:53:21.717Z,47.44
2023-05-14T00:55:51.084Z,47.45
2023-05-14T00:58:20.154Z,47.37
2023-05-14T01:00:48.305Z,47.34
2023-05-14T01:03:16.614Z,47.37
2023-05-14T01:05:55.024Z,47.41
2023-05-14T01:08:33.691Z,47.28
2023-05-14T01:11:07.928Z,47.45
2023-05-14T01:13:46.446Z,47.42
2023-05-14T01:16:20.061Z,47.47
2023-05-14T01:18:52.001Z,47.32
2023-05-14T01:21:36.360Z,47.35
2023-05-14T01:24:04.783Z,47.27
2023-05-14T01:26:32.914Z,47.34
2023-05-14T01:29:09.545Z,47.30
2023-05-14T01:31:40.062Z,47.30
2023-05-14T01:34:09.962Z,47.41
2023-05-14T01:36:41.568Z,47.13
2023-05-14T01:39:10.592Z,47.25
2023-05-14T01:41:40.232Z,47.29
2023-05-14T01:44:09.933Z,47.30
2023-05-14T01:46:38.121Z,47.44
2023-05-14T01:49:06.188Z,47.32
2023-05-14T01:51:36.334Z,47.33
2023-05-14T01:54:05.872Z,47.26
2023-05-14T01:56:33.796Z,47.31
2023-05-14T01:59:01.745Z,47.47
2023-05-14T02:01:29.793Z,47.42
2023-05-14T02:03:58.071Z,47.46
2023-05-14T02:06:26.149Z,47.37
2023-05-14T02:08:54.186Z,47.35
2023-05-14T02:11:23.413Z,47.28
2023-05-14T02:13:51.635Z,47.32
2023-05-14T02:16:19.950Z,47.36
2023-05-14T02:18:48.035Z,47.55
2023-05-14T02:21:16.048Z,47.75
2023-05-14T02:23:44.269Z,47.71
2023-05-14T02:26:12.613Z,47.84
2023-05-14T02:28:41.979Z,47.73
2023-05-14T02:31:10.021Z,47.78
2023-05-14T02:33:37.991Z,47.90
2023-05-14T02:36:06.088Z,48.02
2023-05-14T02:38:34.031Z,47.95
2023-05-14T02:41:01.988Z,47.96
2023-05-14T02:43:29.958Z,47.98
2023-05-14T02:45:59.278Z,48.07
2023-05-14T02:48:27.296Z,48.00
2023-05-14T02:50:55.309Z,48.09
2023-05-14T02:53:23.191Z,48.08
2023-05-14T02:55:51.100Z,47.92
2023-05-14T02:58:19.199Z,48.05
2023-05-14T03:00:53.622Z,48.02
2023-05-14T03:03:23.487Z,48.15
2023-05-14T03:05:52.113Z,48.15
2023-05-14T03:08:20.052Z,48.01
2023-05-14T03:10:50.211Z,48.05
2023-05-14T03:13:20.063Z,48.22
2023-05-14T03:15:48.715Z,48.20
2023-05-14T03:18:16.703Z,48.17
2023-05-14T03:20:45.997Z,48.20
2023-05-14T03:23:14.927Z,48.04
2023-05-14T03:25:43.082Z,48.28
2023-05-14T03:28:11.040Z,48.16
2023-05-14T03:30:39.074Z,48.16
2023-05-14T03:33:07.264Z,48.11
2023-05-14T03:35:35.211Z,48.11
2023-05-14T03:38:04.488Z,47.91
2023-05-14T03:40:32.507Z,47.90
2023-05-14T03:43:00.427Z,47.82
2023-05-14T03:45:31.172Z,47.74
2023-05-14T03:47:59.233Z,47.74
2023-05-14T03:50:27.300Z,47.69
2023-05-14T03:52:55.290Z,47.67
2023-05-14T03:55:24.735Z,47.73
2023-05-14T03:57:52.836Z,47.72
2023-05-14T04:00:21.388Z,47.78
2023-05-14T04:02:49.702Z,47.78
2023-05-14T04:05:17.916Z,47.68
2023-05-14T04:07:46.490Z,47.81
2023-05-14T04:10:14.966Z,47.82
2023-05-14T04:12:44.279Z,47.79
2023-05-14T04:15:12.687Z,47.67
2023-05-14T04:17:40.712Z,47.84
2023-05-14T04:20:09.754Z,47.83
2023-05-14T04:22:37.659Z,47.85
2023-05-14T04:25:09.087Z,47.84
2023-05-14T04:27:37.109Z,47.84
2023-05-14T04:30:08.468Z,47.79
2023-05-14T04:32:36.586Z,47.69
2023-05-14T04:35:05.291Z,47.64
2023-05-14T04:37:33.359Z,47.77
2023-05-14T04:40:01.540Z,47.73
2023-05-14T04:42:32.441Z,47.73
2023-05-14T04:45:00.416Z,47.71
2023-05-14T04:47:29.868Z,47.75
2023-05-14T04:49:58.449Z,47.59
2023-05-14T04:52:27.254Z,47.59
2023-05-14T04:54:56.939Z,47.69
2023-05-14T04:57:25.122Z,47.69
2023-05-14T04:59:53.142Z,47.72
2023-05-14T05:02:21.318Z,47.68
2023-05-14T05:04:50.622Z,47.62
2023-05-14T05:07:21.145Z,47.69
2023-05-14T05:09:49.112Z,47.75
2023-05-14T05:12:17.076Z,47.77
2023-05-14T05:14:45.046Z,47.66
2023-05-14T05:17:17.303Z,47.77
2023-05-14T05:19:48.155Z,47.65
2023-05-14T05:22:17.506Z,47.67
2023-05-14T05:24:49.799Z,47.50
2023-05-14T05:27:18.092Z,47.53
2023-05-14T05:29:46.332Z,47.33
2023-05-14T05:32:14.469Z,47.52
2023-05-14T05:34:42.597Z,47.34
2023-05-14T05:37:12.865Z,47.44
2023-05-14T05:39:42.256Z,47.46
2023-05-14T05:42:10.484Z,47.46
2023-05-14T05:44:40.932Z,47.34
2023-05-14T05:47:08.937Z,47.47
2023-05-14T05:49:37.707Z,47.36
2023-05-14T05:52:06.322Z,47.30
2023-05-14T05:54:37.223Z,47.31
2023-05-14T05:57:06.915Z,47.22
2023-05-14T05:59:34.856Z,47.35
2023-05-14T06:02:06.024Z,47.25
2023-05-14T06:04:34.045Z,47.30
2023-05-14T06:07:03.647Z,47.26
2023-05-14T06:09:31.705Z,47.47
2023-05-14T06:11:59.666Z,47.28
2023-05-14T06:14:28.946Z,47.37
2023-05-14T06:16:56.943Z,47.41
2023-05-14T06:19:24.977Z,47.37
2023-05-14T06:21:53.005Z,47.34
2023-05-14T06:24:21.284Z,47.35
2023-05-14T06:26:50.532Z,47.55
2023-05-14T06:29:18.472Z,47.39
2023-05-14T06:31:50.466Z,47.39
2023-05-14T06:34:18.493Z,47.29
2023-05-14T06:36:46.592Z,47.28
2023-05-14T06:39:14.489Z,47.31
2023-05-14T06:41:42.499Z,47.10
2023-05-14T06:44:11.009Z,47.37
2023-05-14T06:46:39.056Z,47.31
2023-05-14T06:49:08.551Z,47.48
2023-05-14T06:51:36.626Z,47.24
2023-05-14T06:54:04.657Z,47.34
2023-05-14T06:56:32.581Z,47.30
2023-05-14T06:59:03.029Z,47.35
2023-05-14T07:01:31.472Z,47.38
2023-05-14T07:04:02.239Z,47.46
2023-05-14T07:06:32.521Z,47.53
2023-05-14T07:09:02.347Z,47.63
2023-05-14T07:11:30.511Z,47.59
2023-05-14T07:13:58.492Z,47.58
2023-05-14T07:16:26.553Z,47.59
2023-05-14T07:18:54.568Z,47.87
2023-05-14T07:21:22.581Z,47.93
2023-05-14T07:23:51.888Z,48.08
2023-05-14T07:26:19.874Z,48.23
2023-05-14T07:28:50.195Z,48.48
2023-05-14T07:31:18.355Z,48.52
2023-05-14T07:33:48.968Z,48.05
2023-05-14T07:36:17.118Z,48.38
2023-05-14T07:38:45.109Z,48.62
2023-05-14T07:41:14.609Z,48.43
2023-05-14T07:43:42.550Z,47.98
2023-05-14T07:46:10.655Z,47.47
2023-05-14T07:48:38.624Z,47.55
2023-05-14T07:51:06.647Z,47.22
2023-05-14T07:53:34.636Z,47.22
2023-05-14T07:56:02.749Z,47.33
2023-05-14T07:58:32.159Z,47.34
2023-05-14T08:01:01.401Z,47.28
2023-05-14T08:03:29.398Z,47.70
2023-05-14T08:05:57.425Z,48.00
2023-05-14T08:08:27.363Z,48.21
2023-05-14T08:10:55.800Z,48.51
2023-05-14T08:13:23.941Z,48.39
2023-05-14T08:15:53.287Z,48.43
2023-05-14T08:18:21.247Z,48.29
2023-05-14T08:20:49.429Z,48.37
2023-05-14T08:23:17.445Z,48.09
2023-05-14T08:25:47.941Z,48.19
2023-05-14T08:28:15.873Z,48.35
2023-05-14T08:30:43.916Z,48.41
2023-05-14T08:33:13.338Z,48.29
2023-05-14T08:35:41.313Z,47.96
2023-05-14T08:38:09.267Z,47.77
2023-05-14T08:40:37.235Z,47.67
2023-05-14T08:43:06.279Z,47.24
2023-05-14T08:45:36.508Z,47.17
2023-05-14T08:48:09.361Z,47.65
2023-05-14T08:50:38.897Z,47.94
2023-05-14T08:53:06.987Z,48.11
2023-05-14T08:55:35.324Z,48.28
2023-05-14T08:58:03.274Z,48.23
2023-05-14T09:00:31.323Z,48.38
2023-05-14T09:03:01.090Z,48.29
2023-05-14T09:05:29.409Z,48.56
2023-05-14T09:07:58.852Z,48.56
2023-05-14T09:10:27.096Z,48.58
2023-05-14T09:12:55.189Z,48.46
2023-05-14T09:15:24.939Z,48.73
2023-05-14T09:17:53.281Z,48.60
2023-05-14T09:20:21.719Z,48.70
2023-05-14T09:22:54.266Z,48.84
2023-05-14T09:25:32.109Z,48.63
2023-05-14T09:28:00.110Z,48.96
2023-05-14T09:30:31.188Z,48.99
2023-05-14T09:32:59.212Z,49.69
2023-05-14T09:35:27.178Z,49.46
2023-05-14T09:37:57.674Z,49.87
2023-05-14T09:40:25.887Z,50.08
2023-05-14T09:42:56.225Z,49.94
2023-05-14T09:45:24.356Z,49.79
2023-05-14T09:47:53.434Z,49.74
2023-05-14T09:50:21.741Z,49.92
2023-05-14T09:52:49.785Z,50.20
2023-05-14T09:55:17.826Z,50.08
2023-05-14T09:57:45.794Z,50.27
2023-05-14T10:00:17.130Z,50.21
2023-05-14T10:02:51.466Z,50.36
2023-05-14T10:05:20.847Z,50.34
2023-05-14T10:07:53.008Z,50.23
2023-05-14T10:10:26.295Z,50.50
2023-05-14T10:12:59.880Z,50.11
2023-05-14T10:15:34.765Z,50.18
2023-05-14T10:18:08.328Z,49.70
2023-05-14T10:20:38.949Z,50.11
2023-05-14T10:23:10.437Z,49.79
2023-05-14T10:25:39.056Z,49.75
2023-05-14T10:28:07.602Z,49.86
2023-05-14T10:30:36.925Z,49.66
2023-05-14T10:33:09.886Z,49.76
2023-05-14T10:35:58.279Z,49.97
2023-05-14T10:38:28.296Z,49.75
2023-05-14T10:40:59.049Z,49.96
2023-05-14T10:43:30.708Z,49.76
2023-05-14T10:46:01.592Z,49.72
2023-05-14T10:48:30.060Z,49.33
2023-05-14T10:50:58.892Z,49.15
2023-05-14T10:53:37.975Z,49.06
2023-05-14T10:56:08.269Z,49.11
2023-05-14T10:58:40.008Z,48.70
2023-05-14T11:01:11.137Z,48.76
2023-05-14T11:03:45.547Z,48.95
2023-05-14T11:06:16.091Z,48.84
2023-05-14T11:08:46.718Z,48.83
2023-05-14T11:11:15.219Z,49.06
2023-05-14T11:13:44.065Z,48.98
2023-05-14T11:18:49.845Z,48.99
2023-05-14T11:21:18.673Z,48.98
2023-05-14T11:23:48.235Z,49.08
2023-05-14T11:26:21.520Z,49.02
2023-05-14T11:28:50.428Z,48.94
2023-05-14T11:31:20.104Z,48.97
2023-05-14T11:33:48.189Z,49.29
2023-05-14T11:36:19.118Z,49.47
2023-05-14T11:38:50.585Z,49.97
2023-05-14T11:41:20.981Z,50.21
2023-05-14T11:43:49.354Z,50.12
2023-05-14T11:46:19.778Z,50.05
2023-05-14T11:48:48.343Z,49.98
2023-05-14T11:51:16.397Z,50.03
2023-05-14T11:53:46.078Z,50.33
2023-05-14T11:56:14.125Z,50.26
2023-05-14T11:58:42.151Z,50.43
2023-05-14T12:01:14.863Z,50.19
2023-05-14T12:03:44.564Z,50.36
2023-05-14T12:06:12.756Z,50.02
2023-05-14T12:08:40.896Z,49.95
2023-05-14T12:11:10.205Z,49.76
2023-05-14T12:13:38.229Z,49.79
2023-05-14T12:16:06.626Z,49.94
2023-05-14T12:18:34.993Z,49.92
2023-05-14T12:21:08.957Z,49.48
2023-05-14T12:23:39.586Z,48.88
2023-05-14T12:26:09.785Z,49.03
2023-05-14T12:28:43.375Z,48.94
2023-05-14T12:31:16.798Z,49.14
2023-05-14T12:33:44.727Z,48.57
2023-05-14T12:38:51.510Z,47.25
2023-05-14T12:41:19.476Z,47.36
2023-05-14T12:43:49.336Z,46.99
2023-05-14T12:46:17.546Z,47.02
2023-05-14T12:48:46.418Z,46.93
2023-05-14T12:51:16.267Z,46.51
2023-05-14T12:53:44.312Z,46.66
2023-05-14T12:56:14.856Z,46.20
2023-05-14T12:58:42.969Z,45.71
2023-05-14T13:01:10.933Z,45.82
2023-05-14T13:03:38.956Z,45.31
2023-05-14T13:06:07.183Z,45.93
2023-05-14T13:08:36.674Z,46.04
2023-05-14T13:11:04.669Z,45.79
2023-05-14T13:13:32.599Z,46.07
2023-05-14T13:16:01.010Z,45.88
2023-05-14T13:18:32.138Z,46.10
2023-05-14T13:21:00.419Z,46.31
2023-05-14T13:23:28.462Z,45.85
2023-05-14T13:25:57.750Z,46.08
2023-05-14T13:28:25.662Z,46.15
2023-05-14T13:31:08.105Z,46.20
2023-05-14T13:33:36.960Z,46.17
2023-05-14T13:36:05.630Z,45.79
2023-05-14T13:38:33.665Z,45.85
2023-05-14T13:41:03.226Z,45.62
2023-05-14T13:43:31.856Z,45.71
2023-05-14T13:45:59.971Z,45.52
2023-05-14T13:48:28.328Z,45.76
2023-05-14T13:50:56.466Z,45.70
2023-05-14T13:53:26.093Z,45.43
2023-05-14T13:55:58.516Z,45.62
2023-05-14T13:58:29.279Z,45.50
2023-05-14T14:00:57.697Z,45.50
2023-05-14T14:03:25.882Z,45.50
2023-05-14T14:05:53.861Z,45.55
2023-05-14T14:08:23.846Z,45.54
2023-05-14T14:10:54.469Z,45.39
2023-05-14T14:13:23.329Z,45.50
2023-05-14T14:15:52.915Z,45.41
2023-05-14T14:18:20.986Z,45.82
2023-05-14T14:20:49.188Z,45.48
2023-05-14T14:23:17.209Z,45.41
2023-05-14T14:25:46.416Z,45.09
2023-05-14T14:28:14.546Z,45.19
2023-05-14T14:30:43.717Z,45.00
2023-05-14T14:33:13.164Z,45.21
2023-05-14T14:35:41.101Z,45.18
2023-05-14T14:38:09.073Z,45.33
2023-05-14T14:40:37.026Z,45.32
2023-05-14T14:43:05.010Z,45.34
2023-05-14T14:45:32.995Z,45.44
2023-05-14T14:48:31.514Z,45.62
2023-05-14T14:51:00.986Z,45.53
2023-05-14T14:53:29.022Z,45.18
2023-05-14T14:55:57.806Z,45.37
2023-05-14T14:58:26.141Z,45.44
2023-05-14T15:00:58.243Z,45.64
2023-05-14T15:03:27.836Z,45.54
2023-05-14T15:05:55.927Z,45.92
2023-05-14T15:08:28.493Z,45.81
2023-05-14T15:10:57.404Z,46.11
2023-05-14T15:13:26.945Z,46.23
2023-05-14T15:15:54.949Z,46.47
2023-05-14T15:18:22.880Z,46.63
2023-05-14T15:20:52.774Z,46.62
2023-05-14T15:23:20.740Z,46.83
2023-05-14T15:25:51.534Z,46.74
2023-05-14T15:28:19.555Z,47.10
2023-05-14T15:30:49.151Z,47.19
2023-05-14T15:33:19.111Z,46.91
2023-05-14T15:35:47.137Z,46.91
2023-05-14T15:38:16.496Z,46.90
2023-05-14T15:40:44.506Z,46.97
2023-05-14T15:43:12.570Z,47.00
2023-05-14T15:45:40.511Z,46.71
2023-05-14T15:48:08.514Z,46.70
2023-05-14T15:50:36.448Z,46.73
2023-05-14T15:53:04.450Z,46.47
2023-05-14T15:55:33.776Z,46.58
2023-05-14T15:58:04.255Z,46.65
2023-05-14T16:00:32.200Z,46.41
2023-05-14T16:03:00.337Z,46.43
2023-05-14T16:05:28.459Z,46.42
2023-05-14T16:07:56.409Z,46.52
2023-05-14T16:10:24.553Z,46.26
2023-05-14T16:12:54.165Z,46.51
2023-05-14T16:15:22.256Z,46.46
2023-05-14T16:17:50.237Z,46.36
2023-05-14T16:20:18.196Z,46.27
2023-05-14T16:22:46.257Z,46.52
2023-05-14T16:25:14.209Z,46.46
2023-05-14T16:27:42.329Z,46.47
2023-05-14T16:30:12.488Z,46.35
2023-05-14T16:32:42.014Z,46.44
2023-05-14T16:35:10.939Z,46.66
2023-05-14T16:37:38.897Z,46.50
2023-05-14T16:40:10.225Z,46.26
2023-05-14T16:42:38.207Z,46.20
2023-05-14T16:45:09.289Z,46.39
2023-05-14T16:47:38.676Z,46.09
2023-05-14T16:50:08.191Z,46.29
2023-05-14T16:52:36.110Z,46.19
2023-05-14T16:55:04.272Z,46.22
2023-05-14T16:57:32.229Z,46.28
2023-05-14T17:00:00.389Z,46.55
2023-05-14T17:02:28.375Z,46.35
2023-05-14T17:04:57.983Z,46.45
2023-05-14T17:07:26.042Z,46.63
2023-05-14T17:09:56.829Z,46.42
2023-05-14T17:12:24.877Z,45.81
2023-05-14T17:14:52.959Z,46.15
2023-05-14T17:17:20.967Z,46.50
2023-05-14T17:19:49.077Z,46.51
2023-05-14T17:22:18.452Z,46.60
2023-05-14T17:24:46.426Z,46.54
2023-05-14T17:27:16.010Z,46.70
2023-05-14T17:29:44.738Z,46.63
2023-05-14T17:32:12.735Z,46.54
2023-05-14T17:34:40.711Z,46.78
2023-05-14T17:37:08.739Z,46.81
2023-05-14T17:39:38.046Z,46.66
2023-05-14T17:42:07.002Z,46.62
2023-05-14T17:44:34.970Z,46.84
2023-05-14T17:47:03.217Z,46.62
2023-05-14T17:49:33.973Z,46.53
2023-05-14T17:52:02.057Z,46.52
2023-05-14T17:54:30.054Z,46.74
2023-05-14T17:56:59.594Z,46.65
2023-05-14T17:59:27.791Z,46.73
2023-05-14T18:01:55.783Z,46.60
2023-05-14T18:04:23.759Z,46.50
2023-05-14T18:06:51.934Z,46.65
2023-05-14T18:09:19.915Z,46.69
2023-05-14T18:11:49.470Z,46.80
2023-05-14T18:14:19.045Z,46.91
2023-05-14T18:16:47.180Z,47.04
2023-05-14T18:19:15.701Z,47.16
2023-05-14T18:21:46.590Z,47.30
2023-05-14T18:24:14.577Z,47.30
2023-05-14T18:26:42.591Z,47.31
2023-05-14T18:29:10.549Z,47.67
2023-05-14T18:31:39.935Z,48.00
2023-05-14T18:34:07.902Z,48.18
2023-05-14T18:36:35.902Z,48.33
2023-05-14T18:39:03.862Z,48.34
2023-05-14T18:41:31.804Z,48.28
2023-05-14T18:43:59.700Z,48.28
2023-05-14T18:46:27.726Z,48.47
2023-05-14T18:48:59.707Z,48.34
2023-05-14T18:51:30.742Z,48.48
2023-05-14T18:54:01.542Z,48.80
2023-05-14T18:56:29.639Z,48.74
2023-05-14T18:59:00.297Z,48.61
2023-05-14T19:01:28.289Z,49.11
2023-05-14T19:03:56.551Z,48.94
2023-05-14T19:06:26.365Z,49.13
2023-05-14T19:08:54.352Z,48.98
2023-05-14T19:11:22.648Z,49.15
2023-05-14T19:13:50.591Z,49.09
2023-05-14T19:16:18.588Z,49.21
2023-05-14T19:18:46.669Z,49.33
2023-05-14T19:21:15.899Z,49.45
2023-05-14T19:23:45.529Z,49.26
2023-05-14T19:26:15.903Z,49.46
2023-05-14T19:28:43.920Z,49.52
2023-05-14T19:31:12.077Z,49.49
2023-05-14T19:33:40.010Z,49.65
2023-05-14T19:36:08.181Z,49.61
2023-05-14T19:38:36.212Z,49.73
2023-05-14T19:41:05.513Z,49.74
2023-05-14T19:43:33.456Z,49.82
2023-05-14T19:46:01.835Z,50.10
2023-05-14T19:48:29.818Z,49.99
2023-05-14T19:50:57.861Z,50.11
2023-05-14T19:53:29.712Z,50.03
2023-05-14T19:55:58.160Z,50.21
2023-05-14T19:58:29.434Z,50.13
2023-05-14T20:00:58.550Z,50.25
2023-05-14T20:03:29.924Z,50.37
2023-05-14T20:05:58.038Z,50.36
2023-05-14T20:08:26.472Z,50.35
2023-05-14T20:10:54.441Z,50.64
2023-05-14T20:13:25.011Z,50.95
2023-05-14T20:15:55.417Z,50.75
2023-05-14T20:18:23.511Z,50.58
2023-05-14T20:20:51.842Z,50.33
2023-05-14T20:23:20.693Z,50.56
2023-05-14T20:25:53.145Z,50.52
2023-05-14T20:28:21.207Z,50.76
2023-05-14T20:30:49.153Z,50.41
2023-05-14T20:33:18.458Z,50.58
2023-05-14T20:35:48.423Z,50.46
2023-05-14T20:38:18.481Z,50.60
2023-05-14T20:40:46.572Z,50.52
2023-05-14T20:43:14.500Z,50.60
2023-05-14T20:45:42.465Z,50.55
2023-05-14T20:48:12.177Z,50.40
2023-05-14T20:50:41.662Z,50.48
2023-05-14T20:53:09.623Z,50.43
2023-05-14T20:55:37.556Z,50.57
2023-05-14T20:58:05.472Z,50.54
2023-05-14T21:00:33.426Z,50.59
2023-05-14T21:03:01.614Z,50.42
2023-05-14T21:05:33.445Z,50.51
2023-05-14T21:08:02.850Z,50.43
2023-05-14T21:10:30.824Z,50.42
2023-05-14T21:12:58.759Z,50.44
2023-05-14T21:15:27.447Z,50.62
2023-05-14T21:17:55.618Z,50.51
2023-05-14T21:20:23.582Z,50.53
2023-05-14T21:22:51.514Z,50.41
2023-05-14T21:25:23.336Z,50.44
2023-05-14T21:27:51.659Z,50.47
2023-05-14T21:30:19.766Z,50.48
2023-05-14T21:32:47.756Z,50.44
2023-05-14T21:35:15.760Z,50.79
2023-05-14T21:37:43.707Z,50.88
2023-05-14T21:40:13.164Z,50.76
2023-05-14T21:42:42.545Z,50.55
2023-05-14T21:45:12.622Z,50.60
2023-05-14T21:47:40.630Z,50.70
2023-05-14T21:50:09.491Z,50.57
2023-05-14T21:52:38.189Z,50.78
2023-05-14T21:55:06.941Z,50.52
2023-05-14T21:57:35.134Z,50.46
2023-05-14T22:00:08.087Z,50.45
2023-05-14T22:02:36.094Z,50.76
2023-05-14T22:05:04.044Z,50.47
2023-05-14T22:07:32.867Z,50.49
2023-05-14T22:10:01.127Z,50.49
2023-05-14T22:12:29.103Z,50.65
2023-05-14T22:14:57.093Z,50.55
2023-05-14T22:17:28.025Z,50.49
2023-05-14T22:19:56.029Z,50.43
2023-05-14T22:22:24.008Z,50.47
2023-05-14T22:24:51.972Z,50.57
2023-05-14T22:27:20.018Z,50.42
2023-05-14T22:29:48.017Z,50.48
2023-05-14T22:32:16.018Z,50.40
2023-05-14T22:34:45.386Z,50.63
2023-05-14T22:37:13.379Z,50.50
2023-05-14T22:39:41.336Z,50.41
2023-05-14T22:42:09.625Z,50.45
2023-05-14T22:44:37.683Z,50.42
2023-05-14T22:47:06.308Z,50.32
2023-05-14T22:49:34.266Z,50.21
2023-05-14T22:52:03.589Z,50.33
2023-05-14T22:54:31.626Z,50.29
2023-05-14T22:57:02.611Z,50.30
2023-05-14T22:59:30.590Z,50.42
2023-05-14T23:01:58.617Z,50.34
2023-05-14T23:04:26.649Z,50.35
2023-05-14T23:06:57.577Z,50.31
2023-05-14T23:09:26.859Z,50.33
2023-05-14T23:11:55.031Z,50.32
2023-05-14T23:14:22.965Z,50.32
2023-05-14T23:16:50.908Z,50.25
2023-05-14T23:19:19.044Z,50.27
2023-05-14T23:21:47.141Z,50.29
2023-05-14T23:24:15.122Z,50.22
2023-05-14T23:26:44.640Z,50.24
2023-05-14T23:29:12.604Z,50.30
2023-05-14T23:31:41.114Z,50.35
2023-05-14T23:34:09.134Z,50.29
2023-05-14T23:36:37.168Z,50.25
2023-05-14T23:39:05.707Z,50.31
2023-05-14T23:41:33.685Z,50.23
2023-05-14T23:44:03.191Z,50.25
2023-05-14T23:46:31.558Z,50.13
2023-05-14T23:48:59.698Z,50.18
2023-05-14T23:51:30.083Z,50.19
2023-05-14T23:53:58.743Z,50.16
2023-05-14T23:56:30.308Z,50.12
2023-05-14T23:58:58.383Z,50.11
